createdAt,value
2022-10-22T00:01:42.073Z,15.20
2022-10-22T00:04:08.725Z,15.20
2022-10-22T00:06:35.421Z,15.23
2022-10-22T00:09:02.152Z,15.23
2022-10-22T00:11:28.982Z,15.23
2022-10-22T00:13:55.759Z,15.22
2022-10-22T00:16:22.426Z,15.16
2022-10-22T00:18:49.305Z,15.19
2022-10-22T00:21:15.988Z,15.21
2022-10-22T00:23:43.378Z,15.22
2022-10-22T00:26:10.942Z,15.22
2022-10-22T00:28:37.695Z,15.23
2022-10-22T00:31:04.485Z,15.21
2022-10-22T00:33:31.394Z,15.24
2022-10-22T00:35:58.448Z,15.23
2022-10-22T00:38:25.157Z,15.20
2022-10-22T00:40:52.094Z,15.19
2022-10-22T00:43:20.012Z,15.18
2022-10-22T00:45:47.191Z,15.16
2022-10-22T00:48:21.069Z,15.13
2022-10-22T00:50:51.949Z,15.13
2022-10-22T00:53:35.411Z,15.09
2022-10-22T00:56:02.366Z,15.13
2022-10-22T00:58:31.422Z,15.14
2022-10-22T01:00:58.363Z,15.13
2022-10-22T01:03:25.194Z,15.11
2022-10-22T01:05:57.741Z,15.09
2022-10-22T01:08:36.528Z,15.07
2022-10-22T01:11:22.205Z,15.01
2022-10-22T01:13:55.220Z,15.08
2022-10-22T01:16:30.793Z,14.84
2022-10-22T01:19:25.214Z,14.98
2022-10-22T01:22:09.296Z,14.94
2022-10-22T01:24:41.218Z,15.06
2022-10-22T01:27:26.530Z,14.96
2022-10-22T01:29:57.866Z,15.04
2022-10-22T01:32:26.603Z,15.07
2022-10-22T01:34:57.573Z,15.04
2022-10-22T01:37:28.866Z,15.01
2022-10-22T01:39:57.939Z,15.02
2022-10-22T01:42:24.726Z,15.00
2022-10-22T01:44:51.443Z,14.97
2022-10-22T01:47:40.024Z,14.94
2022-10-22T01:50:31.542Z,14.87
2022-10-22T01:53:13.877Z,14.90
2022-10-22T01:55:48.155Z,14.95
2022-10-22T01:58:41.153Z,14.91
2022-10-22T02:01:31.894Z,14.90
2022-10-22T02:04:06.650Z,14.88
2022-10-22T02:06:33.895Z,14.95
2022-10-22T02:09:00.960Z,14.97
2022-10-22T02:11:27.658Z,14.93
2022-10-22T02:13:57.030Z,14.91
2022-10-22T02:16:50.165Z,14.73
2022-10-22T02:19:25.613Z,14.84
2022-10-22T02:21:53.017Z,14.89
2022-10-22T02:24:20.109Z,14.89
2022-10-22T02:27:10.333Z,14.81
2022-10-22T02:29:41.162Z,14.91
2022-10-22T02:32:09.775Z,14.92
2022-10-22T02:34:36.435Z,14.93
2022-10-22T02:37:03.554Z,14.94
2022-10-22T02:39:31.631Z,14.96
2022-10-22T02:41:58.326Z,14.93
2022-10-22T02:44:25.093Z,14.95
2022-10-22T02:46:51.951Z,14.95
2022-10-22T02:49:18.747Z,14.94
2022-10-22T02:51:45.597Z,14.95
2022-10-22T02:54:12.399Z,14.92
2022-10-22T02:56:39.087Z,14.93
2022-10-22T02:59:05.720Z,14.89
2022-10-22T03:01:32.374Z,14.86
2022-10-22T03:03:59.028Z,14.86
2022-10-22T03:08:57.490Z,14.84
2022-10-22T03:11:24.182Z,14.85
2022-10-22T03:13:50.946Z,14.85
2022-10-22T03:16:17.626Z,14.84
2022-10-22T03:18:44.313Z,14.85
2022-10-22T03:21:15.704Z,14.79
2022-10-22T03:23:42.750Z,14.83
2022-10-22T03:26:10.699Z,14.84
2022-10-22T03:28:38.370Z,14.82
2022-10-22T03:31:05.058Z,14.83
2022-10-22T03:33:31.739Z,14.83
2022-10-22T03:35:58.461Z,14.83
2022-10-22T03:38:25.364Z,14.83
2022-10-22T03:40:52.206Z,14.80
2022-10-22T03:43:18.846Z,14.80
2022-10-22T03:45:45.528Z,14.77
2022-10-22T03:48:12.174Z,14.79
2022-10-22T03:50:38.822Z,14.77
2022-10-22T03:53:07.088Z,14.76
2022-10-22T03:55:33.794Z,14.78
2022-10-22T03:58:00.663Z,14.80
2022-10-22T04:00:27.327Z,14.75
2022-10-22T04:02:54.132Z,14.73
2022-10-22T04:05:20.797Z,14.72
2022-10-22T04:07:47.475Z,14.72
2022-10-22T04:10:14.144Z,14.72
2022-10-22T04:12:40.834Z,14.72
2022-10-22T04:15:08.205Z,14.72
2022-10-22T04:17:35.808Z,14.71
2022-10-22T04:20:03.979Z,14.67
2022-10-22T04:22:33.542Z,14.63
2022-10-22T04:25:00.435Z,14.65
2022-10-22T04:27:31.085Z,14.65
2022-10-22T04:29:57.805Z,14.66
2022-10-22T04:32:25.367Z,14.62
2022-10-22T04:34:52.026Z,14.56
2022-10-22T04:37:18.642Z,14.52
2022-10-22T04:39:45.255Z,14.55
2022-10-22T04:42:12.744Z,14.54
2022-10-22T04:44:39.395Z,14.47
2022-10-22T04:47:06.070Z,14.47
2022-10-22T04:49:32.713Z,14.49
2022-10-22T04:51:59.410Z,14.45
2022-10-22T04:54:29.026Z,14.49
2022-10-22T04:56:59.142Z,14.43
2022-10-22T04:59:25.875Z,14.39
2022-10-22T05:01:52.580Z,14.41
2022-10-22T05:04:19.668Z,14.41
2022-10-22T05:06:46.909Z,14.36
2022-10-22T05:09:16.489Z,14.27
2022-10-22T05:11:48.783Z,14.26
2022-10-22T05:14:18.124Z,14.24
2022-10-22T05:16:47.665Z,14.28
2022-10-22T05:19:25.869Z,14.21
2022-10-22T05:21:54.170Z,14.22
2022-10-22T05:24:21.178Z,14.18
2022-10-22T05:26:51.755Z,14.14
2022-10-22T05:29:18.589Z,14.18
2022-10-22T05:31:45.353Z,14.19
2022-10-22T05:34:12.611Z,14.19
2022-10-22T05:36:39.390Z,14.21
2022-10-22T05:39:06.276Z,14.18
2022-10-22T05:41:33.693Z,14.16
2022-10-22T05:44:00.615Z,14.13
2022-10-22T05:46:29.542Z,14.12
2022-10-22T05:48:59.141Z,14.08
2022-10-22T05:51:27.896Z,14.08
2022-10-22T05:53:58.551Z,14.07
2022-10-22T05:56:26.509Z,14.05
2022-10-22T05:58:53.292Z,14.04
2022-10-22T06:01:22.617Z,13.98
2022-10-22T06:03:49.915Z,14.02
2022-10-22T06:06:29.119Z,13.82
2022-10-22T06:08:56.459Z,13.90
2022-10-22T06:11:23.913Z,13.91
2022-10-22T06:13:50.924Z,14.01
2022-10-22T06:16:18.873Z,13.99
2022-10-22T06:18:45.529Z,13.97
2022-10-22T06:21:14.001Z,13.95
2022-10-22T06:23:41.543Z,13.88
2022-10-22T06:26:08.858Z,13.90
2022-10-22T06:28:35.858Z,13.90
2022-10-22T06:31:03.515Z,13.91
2022-10-22T06:33:32.297Z,13.90
2022-10-22T06:36:09.911Z,13.79
2022-10-22T06:38:36.620Z,13.88
2022-10-22T06:41:08.417Z,13.86
2022-10-22T06:43:35.492Z,13.88
2022-10-22T06:46:04.006Z,13.87
2022-10-22T06:48:30.756Z,13.92
2022-10-22T06:51:02.057Z,13.91
2022-10-22T06:53:28.909Z,13.96
2022-10-22T06:55:55.586Z,13.96
2022-10-22T06:58:22.284Z,13.97
2022-10-22T07:00:48.935Z,13.98
2022-10-22T07:03:15.843Z,13.99
2022-10-22T07:05:42.491Z,13.96
2022-10-22T07:08:09.173Z,13.94
2022-10-22T07:10:35.843Z,13.97
2022-10-22T07:13:02.507Z,13.91
2022-10-22T07:15:29.245Z,13.99
2022-10-22T07:17:55.877Z,13.99
2022-10-22T07:20:22.569Z,13.94
2022-10-22T07:22:49.234Z,13.92
2022-10-22T07:25:15.905Z,13.91
2022-10-22T07:27:42.812Z,13.96
2022-10-22T07:30:09.994Z,13.94
2022-10-22T07:32:37.093Z,13.95
2022-10-22T07:35:04.895Z,13.89
2022-10-22T07:37:31.517Z,13.92
2022-10-22T07:40:02.742Z,13.93
2022-10-22T07:45:02.467Z,13.91
2022-10-22T07:47:29.136Z,13.93
2022-10-22T07:49:55.795Z,13.92
2022-10-22T07:52:22.415Z,13.92
2022-10-22T07:54:49.041Z,13.99
2022-10-22T07:57:15.708Z,14.02
2022-10-22T07:59:42.384Z,14.13
2022-10-22T08:02:10.031Z,14.20
2022-10-22T08:04:36.687Z,14.29
2022-10-22T08:07:03.323Z,14.39
2022-10-22T08:09:30.011Z,14.45
2022-10-22T08:11:56.825Z,14.52
2022-10-22T08:14:23.523Z,14.60
2022-10-22T08:16:50.208Z,14.64
2022-10-22T08:19:21.207Z,14.68
2022-10-22T08:21:47.889Z,14.67
2022-10-22T08:24:14.837Z,14.67
2022-10-22T08:26:41.887Z,14.68
2022-10-22T08:29:08.585Z,14.73
2022-10-22T08:31:35.487Z,14.81
2022-10-22T08:34:02.149Z,14.82
2022-10-22T08:36:28.794Z,14.86
2022-10-22T08:38:55.421Z,14.92
2022-10-22T08:41:23.874Z,14.96
2022-10-22T08:44:15.154Z,14.96
2022-10-22T08:47:18.652Z,14.92
2022-10-22T08:49:48.169Z,15.04
2022-10-22T08:52:17.297Z,15.08
2022-10-22T08:54:52.520Z,15.09
2022-10-22T08:57:48.716Z,15.11
2022-10-22T09:00:18.301Z,15.13
2022-10-22T09:02:57.159Z,15.17
2022-10-22T09:05:32.532Z,15.16
2022-10-22T09:07:59.192Z,15.21
2022-10-22T09:10:29.746Z,15.25
2022-10-22T09:12:56.428Z,15.26
2022-10-22T09:15:23.090Z,15.28
2022-10-22T09:18:26.829Z,15.24
2022-10-22T09:20:54.791Z,15.18
2022-10-22T09:23:24.364Z,15.36
2022-10-22T09:25:52.026Z,15.44
2022-10-22T09:28:18.925Z,15.49
2022-10-22T09:30:45.844Z,15.54
2022-10-22T09:33:14.149Z,15.56
2022-10-22T09:36:03.431Z,15.51
2022-10-22T09:38:32.774Z,15.63
2022-10-22T09:41:01.264Z,15.68
2022-10-22T09:43:28.112Z,15.71
2022-10-22T09:46:00.395Z,15.70
2022-10-22T09:48:39.255Z,15.65
2022-10-22T09:51:15.066Z,15.71
2022-10-22T09:53:43.809Z,15.72
2022-10-22T09:56:35.407Z,15.62
2022-10-22T09:59:02.453Z,15.74
2022-10-22T10:01:32.838Z,15.75
2022-10-22T10:04:08.424Z,15.79
2022-10-22T10:06:39.315Z,15.81
2022-10-22T10:09:25.824Z,15.75
2022-10-22T10:12:02.709Z,15.84
2022-10-22T10:14:43.200Z,15.88
2022-10-22T10:17:28.200Z,15.88
2022-10-22T10:20:16.155Z,15.93
2022-10-22T10:22:51.713Z,16.01
2022-10-22T10:25:24.484Z,16.04
2022-10-22T10:28:09.693Z,16.06
2022-10-22T10:30:49.353Z,16.12
2022-10-22T10:33:37.168Z,16.17
2022-10-22T10:36:25.477Z,16.13
2022-10-22T10:39:37.270Z,16.13
2022-10-22T10:42:31.212Z,16.16
2022-10-22T10:45:01.054Z,16.25
2022-10-22T10:47:45.635Z,16.24
2022-10-22T10:50:29.319Z,16.24
2022-10-22T10:53:12.512Z,16.29
2022-10-22T10:55:55.204Z,16.30
2022-10-22T10:58:35.927Z,16.34
2022-10-22T11:01:27.921Z,16.37
2022-10-22T11:04:11.145Z,16.42
2022-10-22T11:06:39.558Z,16.46
2022-10-22T11:09:14.841Z,16.51
2022-10-22T11:11:48.456Z,16.51
2022-10-22T11:14:24.221Z,16.55
2022-10-22T11:17:26.009Z,16.57
2022-10-22T11:20:07.949Z,16.57
2022-10-22T11:22:44.474Z,16.64
2022-10-22T11:25:28.589Z,16.63
2022-10-22T11:28:09.129Z,16.68
2022-10-22T11:30:38.315Z,16.74
2022-10-22T11:33:11.789Z,16.74
2022-10-22T11:35:44.354Z,16.77
2022-10-22T11:38:16.755Z,16.79
2022-10-22T11:40:52.317Z,16.81
2022-10-22T11:43:35.540Z,16.83
2022-10-22T11:46:05.004Z,16.76
2022-10-22T11:48:36.792Z,16.93
2022-10-22T11:51:04.262Z,17.00
2022-10-22T11:53:36.047Z,17.02
2022-10-22T11:56:12.996Z,17.04
2022-10-22T11:58:44.790Z,17.08
2022-10-22T12:01:11.408Z,17.13
2022-10-22T12:03:44.232Z,17.13
2022-10-22T12:06:15.650Z,17.03
2022-10-22T12:08:50.142Z,17.19
2022-10-22T12:11:26.605Z,17.25
2022-10-22T12:14:14.948Z,17.30
2022-10-22T12:16:56.578Z,17.33
2022-10-22T12:19:37.157Z,17.36
2022-10-22T12:22:06.562Z,17.44
2022-10-22T12:24:41.984Z,17.40
2022-10-22T12:27:22.789Z,17.41
2022-10-22T12:29:57.717Z,17.46
2022-10-22T12:32:33.013Z,17.51
2022-10-22T12:35:06.345Z,17.56
2022-10-22T12:37:35.438Z,17.60
2022-10-22T12:40:02.202Z,17.62
2022-10-22T12:42:30.070Z,17.62
2022-10-22T12:44:56.722Z,17.61
2022-10-22T12:47:23.458Z,17.62
2022-10-22T12:49:50.699Z,17.66
2022-10-22T12:52:20.650Z,17.65
2022-10-22T12:54:50.246Z,17.68
2022-10-22T12:57:18.794Z,17.69
2022-10-22T12:59:49.983Z,17.71
2022-10-22T13:02:25.497Z,17.71
2022-10-22T13:05:13.448Z,17.68
2022-10-22T13:07:43.254Z,17.79
2022-10-22T13:10:25.195Z,17.74
2022-10-22T13:12:55.938Z,17.79
2022-10-22T13:15:42.989Z,17.72
2022-10-22T13:18:19.083Z,17.75
2022-10-22T13:20:58.843Z,17.75
2022-10-22T13:23:27.155Z,17.74
2022-10-22T13:26:10.586Z,17.66
2022-10-22T13:28:37.247Z,17.72
2022-10-22T13:31:16.070Z,17.64
2022-10-22T13:33:45.281Z,17.67
2022-10-22T13:36:14.646Z,17.66
2022-10-22T13:38:42.089Z,17.67
2022-10-22T13:41:26.598Z,17.60
2022-10-22T13:43:54.223Z,17.69
2022-10-22T13:46:21.639Z,17.69
2022-10-22T13:48:50.029Z,17.70
2022-10-22T13:51:18.962Z,17.70
2022-10-22T13:53:46.433Z,17.71
2022-10-22T13:56:15.553Z,17.70
2022-10-22T13:58:43.574Z,17.69
2022-10-22T14:01:27.183Z,17.61
2022-10-22T14:03:57.922Z,17.66
2022-10-22T14:06:25.579Z,17.64
2022-10-22T14:09:11.927Z,17.58
2022-10-22T14:11:38.768Z,17.61
2022-10-22T14:14:08.772Z,17.57
2022-10-22T14:16:37.022Z,17.55
2022-10-22T14:19:03.840Z,17.52
2022-10-22T14:21:34.576Z,17.47
2022-10-22T14:24:01.226Z,17.46
2022-10-22T14:26:32.936Z,17.45
2022-10-22T14:29:15.964Z,17.44
2022-10-22T14:31:44.390Z,17.40
2022-10-22T14:34:12.963Z,17.40
2022-10-22T14:36:39.644Z,17.41
2022-10-22T14:39:06.320Z,17.39
2022-10-22T14:41:33.107Z,17.39
2022-10-22T14:43:59.835Z,17.39
2022-10-22T14:46:26.663Z,17.39
2022-10-22T14:48:53.275Z,17.38
2022-10-22T14:51:21.568Z,17.38
2022-10-22T14:53:48.681Z,17.37
2022-10-22T14:56:17.690Z,17.36
2022-10-22T14:58:45.484Z,17.35
2022-10-22T15:01:12.504Z,17.34
2022-10-22T15:03:39.228Z,17.31
2022-10-22T15:06:06.257Z,17.31
2022-10-22T15:08:33.057Z,17.28
2022-10-22T15:11:03.903Z,17.25
2022-10-22T15:13:31.433Z,17.24
2022-10-22T15:15:58.087Z,17.23
2022-10-22T15:18:25.254Z,17.24
2022-10-22T15:20:59.633Z,17.17
2022-10-22T15:23:26.783Z,17.19
2022-10-22T15:25:54.182Z,17.17
2022-10-22T15:28:21.062Z,17.17
2022-10-22T15:30:55.817Z,17.10
2022-10-22T15:33:22.907Z,17.15
2022-10-22T15:35:49.607Z,17.14
2022-10-22T15:38:16.709Z,17.15
2022-10-22T15:40:43.534Z,17.16
2022-10-22T15:43:10.254Z,17.14
2022-10-22T15:45:37.028Z,17.13
2022-10-22T15:48:04.145Z,17.12
2022-10-22T15:50:30.790Z,17.11
2022-10-22T15:52:57.609Z,17.03
2022-10-22T15:55:24.407Z,17.03
2022-10-22T15:57:57.120Z,17.00
2022-10-22T16:00:26.114Z,16.96
2022-10-22T16:02:54.071Z,16.94
2022-10-22T16:05:20.918Z,16.91
2022-10-22T16:07:47.632Z,16.88
2022-10-22T16:10:14.319Z,16.84
2022-10-22T16:12:41.515Z,16.83
2022-10-22T16:15:09.362Z,16.79
2022-10-22T16:17:36.051Z,16.76
2022-10-22T16:20:03.085Z,16.73
2022-10-22T16:22:29.789Z,16.68
2022-10-22T16:24:56.469Z,16.68
2022-10-22T16:27:23.101Z,16.63
2022-10-22T16:29:49.747Z,16.58
2022-10-22T16:32:16.779Z,16.53
2022-10-22T16:34:43.565Z,16.53
2022-10-22T16:37:10.508Z,16.49
2022-10-22T16:39:37.408Z,16.48
2022-10-22T16:42:04.142Z,16.45
2022-10-22T16:44:30.901Z,16.43
2022-10-22T16:46:57.559Z,16.41
2022-10-22T16:49:24.352Z,16.40
2022-10-22T16:51:51.116Z,16.40
2022-10-22T16:54:17.964Z,16.38
2022-10-22T16:56:44.588Z,16.32
2022-10-22T16:59:11.357Z,16.30
2022-10-22T17:01:40.915Z,16.30
2022-10-22T17:04:08.134Z,16.25
2022-10-22T17:06:34.803Z,16.24
2022-10-22T17:09:01.636Z,16.20
2022-10-22T17:11:34.613Z,16.14
2022-10-22T17:14:02.320Z,16.16
2022-10-22T17:16:29.211Z,16.15
2022-10-22T17:18:56.476Z,16.09
2022-10-22T17:21:23.397Z,16.10
2022-10-22T17:23:54.764Z,16.03
2022-10-22T17:26:22.673Z,16.10
2022-10-22T17:28:49.869Z,16.07
2022-10-22T17:31:20.381Z,16.05
2022-10-22T17:33:48.610Z,16.07
2022-10-22T17:36:16.654Z,16.14
2022-10-22T17:38:45.298Z,16.07
2022-10-22T17:41:17.702Z,15.99
2022-10-22T17:46:23.777Z,15.90
2022-10-22T17:48:51.767Z,15.97
2022-10-22T17:51:19.404Z,15.93
2022-10-22T17:53:46.537Z,15.92
2022-10-22T17:56:15.283Z,15.88
2022-10-22T17:58:42.070Z,15.86
2022-10-22T18:01:26.095Z,15.75
2022-10-22T18:03:54.118Z,15.76
2022-10-22T18:06:21.373Z,15.74
2022-10-22T18:08:48.153Z,15.78
2022-10-22T18:11:18.394Z,15.72
2022-10-22T18:13:49.226Z,15.73
2022-10-22T18:16:15.873Z,15.74
2022-10-22T18:18:46.028Z,15.66
2022-10-22T18:21:12.846Z,15.68
2022-10-22T18:23:39.508Z,15.67
2022-10-22T18:26:06.344Z,15.66
2022-10-22T18:28:33.273Z,15.64
2022-10-22T18:31:00.101Z,15.60
2022-10-22T18:33:26.817Z,15.64
2022-10-22T18:35:53.788Z,15.68
2022-10-22T18:38:23.812Z,15.73
2022-10-22T18:40:50.571Z,15.75
2022-10-22T18:43:17.856Z,15.77
2022-10-22T18:45:46.054Z,15.75
2022-10-22T18:48:14.470Z,15.69
2022-10-22T18:50:41.194Z,15.73
2022-10-22T18:53:07.854Z,15.71
2022-10-22T18:55:35.463Z,15.69
2022-10-22T18:58:02.215Z,15.63
2022-10-22T19:00:28.876Z,15.57
2022-10-22T19:02:55.544Z,15.52
2022-10-22T19:05:22.442Z,15.52
2022-10-22T19:07:50.040Z,15.50
2022-10-22T19:10:17.464Z,15.48
2022-10-22T19:12:44.173Z,15.47
2022-10-22T19:15:11.282Z,15.43
2022-10-22T19:17:37.925Z,15.44
2022-10-22T19:20:05.615Z,15.43
2022-10-22T19:22:32.432Z,15.43
2022-10-22T19:24:59.116Z,15.39
2022-10-22T19:27:25.807Z,15.45
2022-10-22T19:29:52.461Z,15.41
2022-10-22T19:32:20.183Z,15.36
2022-10-22T19:34:47.163Z,15.32
2022-10-22T19:37:14.023Z,15.35
2022-10-22T19:39:40.839Z,15.26
2022-10-22T19:42:07.525Z,15.28
2022-10-22T19:44:34.362Z,15.28
2022-10-22T19:47:01.213Z,15.30
2022-10-22T19:49:27.874Z,15.28
2022-10-22T19:51:54.550Z,15.26
2022-10-22T19:54:21.273Z,15.26
2022-10-22T19:56:48.767Z,15.24
2022-10-22T19:59:16.717Z,15.22
2022-10-22T20:01:43.517Z,15.18
2022-10-22T20:04:15.164Z,15.15
2022-10-22T20:06:42.463Z,15.21
2022-10-22T20:09:11.266Z,15.22
2022-10-22T20:11:38.086Z,15.19
2022-10-22T20:14:04.777Z,15.22
2022-10-22T20:16:31.695Z,15.20
2022-10-22T20:19:03.646Z,15.15
2022-10-22T20:21:30.730Z,15.17
2022-10-22T20:23:57.670Z,15.14
2022-10-22T20:26:27.759Z,15.14
2022-10-22T20:28:56.079Z,15.17
2022-10-22T20:31:24.954Z,15.24
2022-10-22T20:33:51.718Z,15.20
2022-10-22T20:36:20.409Z,15.24
2022-10-22T20:38:48.320Z,15.17
2022-10-22T20:41:21.036Z,15.10
2022-10-22T20:43:50.270Z,15.09
2022-10-22T20:46:31.668Z,14.94
2022-10-22T20:49:04.934Z,15.07
2022-10-22T20:51:31.974Z,15.06
2022-10-22T20:53:59.025Z,15.11
2022-10-22T20:56:26.055Z,15.10
2022-10-22T20:59:03.927Z,15.10
2022-10-22T21:01:40.140Z,15.00
2022-10-22T21:04:07.247Z,15.11
2022-10-22T21:06:37.801Z,15.07
2022-10-22T21:09:08.686Z,14.98
2022-10-22T21:11:36.639Z,15.03
2022-10-22T21:14:04.530Z,15.00
2022-10-22T21:16:31.175Z,14.99
2022-10-22T21:18:57.847Z,14.92
2022-10-22T21:21:24.577Z,14.92
2022-10-22T21:23:51.748Z,14.96
2022-10-22T21:26:19.653Z,14.97
2022-10-22T21:28:46.601Z,14.99
2022-10-22T21:31:20.082Z,14.92
2022-10-22T21:33:47.041Z,14.91
2022-10-22T21:36:13.681Z,14.86
2022-10-22T21:38:40.567Z,14.87
2022-10-22T21:41:09.932Z,14.81
2022-10-22T21:43:37.218Z,14.81
2022-10-22T21:46:19.123Z,14.68
2022-10-22T21:48:46.162Z,14.74
2022-10-22T21:51:18.695Z,14.80
2022-10-22T21:53:45.828Z,14.76
2022-10-22T21:56:27.399Z,14.70
2022-10-22T21:58:54.503Z,14.70
2022-10-22T22:01:22.019Z,14.71
2022-10-22T22:03:49.805Z,14.65
2022-10-22T22:06:21.243Z,14.66
2022-10-22T22:08:49.574Z,14.62
2022-10-22T22:11:19.233Z,14.59
2022-10-22T22:13:47.331Z,14.60
2022-10-22T22:16:16.899Z,14.58
2022-10-22T22:18:43.682Z,14.53
2022-10-22T22:21:13.465Z,14.51
2022-10-22T22:23:43.123Z,14.54
2022-10-22T22:26:10.034Z,14.51
2022-10-22T22:28:37.370Z,14.56
2022-10-22T22:31:25.191Z,14.42
2022-10-22T22:34:00.018Z,14.41
2022-10-22T22:36:26.726Z,14.47
2022-10-22T22:38:56.997Z,14.41
2022-10-22T22:41:23.697Z,14.45
2022-10-22T22:43:51.181Z,14.42
2022-10-22T22:46:17.969Z,14.42
2022-10-22T22:48:47.731Z,14.35
2022-10-22T22:51:14.407Z,14.36
2022-10-22T22:53:41.197Z,14.37
2022-10-22T22:56:13.178Z,14.31
2022-10-22T22:58:40.815Z,14.32
2022-10-22T23:01:16.470Z,14.30
2022-10-22T23:03:44.821Z,14.35
2022-10-22T23:06:12.379Z,14.33
2022-10-22T23:08:39.206Z,14.37
2022-10-22T23:11:11.101Z,14.33
2022-10-22T23:13:38.381Z,14.29
2022-10-22T23:16:10.245Z,14.21
2022-10-22T23:18:36.971Z,14.26
2022-10-22T23:21:11.306Z,14.23
2022-10-22T23:23:38.132Z,14.26
2022-10-22T23:26:04.902Z,14.32
2022-10-22T23:28:31.619Z,14.29
2022-10-22T23:30:58.583Z,14.28
2022-10-22T23:33:25.281Z,14.29
2022-10-22T23:35:52.108Z,14.27
2022-10-22T23:38:19.017Z,14.21
2022-10-22T23:40:45.691Z,14.13
2022-10-22T23:43:12.481Z,14.16
2022-10-22T23:45:39.157Z,14.15
2022-10-22T23:48:06.164Z,14.14
2022-10-22T23:50:33.106Z,14.14
2022-10-22T23:52:59.904Z,14.19
2022-10-22T23:55:26.561Z,14.09
2022-10-22T23:57:53.324Z,14.03
